sensor_id;sensor_type;location;lat;lon;timestamp;pressure;altitude;pressure_sealevel;temperature;humidity
49377;BME280;35253;34.688;33.040;2022-10-17T00:00:19;100776.53;;;23.21;100.00
49377;BME280;35253;34.688;33.040;2022-10-17T00:02:45;100771.94;;;23.29;100.00
49377;BME280;35253;34.688;33.040;2022-10-17T00:05:10;100774.63;;;23.21;100.00
49377;BME280;35253;34.688;33.040;2022-10-17T00:07:36;100779.25;;;23.21;100.00
49377;BME280;35253;34.688;33.040;2022-10-17T00:10:02;100782.28;;;23.18;100.00
49377;BME280;35253;34.688;33.040;2022-10-17T00:12:27;100781.97;;;23.21;100.00
49377;BME280;35253;34.688;33.040;2022-10-17T00:14:53;100778.72;;;23.17;100.00
49377;BME280;35253;34.688;33.040;2022-10-17T00:17:18;100795.22;;;23.16;100.00
49377;BME280;35253;34.688;33.040;2022-10-17T00:19:44;100812.22;;;23.18;100.00
49377;BME280;35253;34.688;33.040;2022-10-17T00:22:09;100832.28;;;23.17;100.00
49377;BME280;35253;34.688;33.040;2022-10-17T00:24:35;100835.69;;;23.19;100.00
49377;BME280;35253;34.688;33.040;2022-10-17T00:27:00;100854.38;;;23.14;100.00
49377;BME280;35253;34.688;33.040;2022-10-17T00:29:26;100860.31;;;23.09;100.00
49377;BME280;35253;34.688;33.040;2022-10-17T00:31:55;100863.25;;;23.16;100.00
49377;BME280;35253;34.688;33.040;2022-10-17T00:34:20;100862.53;;;23.22;100.00
49377;BME280;35253;34.688;33.040;2022-10-17T00:36:46;100957.06;;;23.12;100.00
49377;BME280;35253;34.688;33.040;2022-10-17T00:39:11;100969.44;;;21.85;100.00
49377;BME280;35253;34.688;33.040;2022-10-17T00:41:37;100971.09;;;20.88;100.00
49377;BME280;35253;34.688;33.040;2022-10-17T00:44:03;100972.63;;;20.54;100.00
49377;BME280;35253;34.688;33.040;2022-10-17T00:46:33;100973.97;;;19.92;100.00
49377;BME280;35253;34.688;33.040;2022-10-17T00:49:02;100935.84;;;19.57;100.00
49377;BME280;35253;34.688;33.040;2022-10-17T00:52:02;100938.97;;;19.62;100.00
49377;BME280;35253;34.688;33.040;2022-10-17T00:54:24;100939.41;;;19.86;100.00
49377;BME280;35253;34.688;33.040;2022-10-17T00:56:51;100924.44;;;19.92;100.00
49377;BME280;35253;34.688;33.040;2022-10-17T00:59:17;100897.97;;;19.76;100.00
49377;BME280;35253;34.688;33.040;2022-10-17T01:01:47;100884.88;;;19.62;100.00
49377;BME280;35253;34.688;33.040;2022-10-17T01:04:15;100887.44;;;19.54;100.00
49377;BME280;35253;34.688;33.040;2022-10-17T01:06:41;100901.09;;;19.43;100.00
49377;BME280;35253;34.688;33.040;2022-10-17T01:09:07;100911.16;;;19.41;100.00
49377;BME280;35253;34.688;33.040;2022-10-17T01:11:55;100912.63;;;19.45;100.00
49377;BME280;35253;34.688;33.040;2022-10-17T01:22:22;100919.63;;;19.57;100.00
49377;BME280;35253;34.688;33.040;2022-10-17T01:27:36;100922.56;;;19.92;100.00
49377;BME280;35253;34.688;33.040;2022-10-17T01:35:16;100933.13;;;19.76;100.00
49377;BME280;35253;34.688;33.040;2022-10-17T01:40:11;100954.47;;;19.98;100.00
49377;BME280;35253;34.688;33.040;2022-10-17T01:42:44;100949.19;;;20.06;100.00
49377;BME280;35253;34.688;33.040;2022-10-17T01:45:21;100937.66;;;20.14;100.00
49377;BME280;35253;34.688;33.040;2022-10-17T01:47:49;100922.72;;;20.00;100.00
49377;BME280;35253;34.688;33.040;2022-10-17T01:50:22;100936.38;;;20.08;100.00
49377;BME280;35253;34.688;33.040;2022-10-17T01:52:51;100923.72;;;19.90;100.00
49377;BME280;35253;34.688;33.040;2022-10-17T01:55:18;100911.22;;;19.69;100.00
49377;BME280;35253;34.688;33.040;2022-10-17T01:57:49;100910.78;;;19.55;100.00
49377;BME280;35253;34.688;33.040;2022-10-17T02:00:17;100898.00;;;19.57;100.00
49377;BME280;35253;34.688;33.040;2022-10-17T02:02:44;100893.09;;;19.41;100.00
49377;BME280;35253;34.688;33.040;2022-10-17T02:05:11;100882.56;;;19.38;100.00
49377;BME280;35253;34.688;33.040;2022-10-17T02:07:39;100880.44;;;19.42;100.00
49377;BME280;35253;34.688;33.040;2022-10-17T02:10:05;100891.00;;;19.45;100.00
49377;BME280;35253;34.688;33.040;2022-10-17T02:15:07;100927.56;;;19.49;100.00
49377;BME280;35253;34.688;33.040;2022-10-17T02:20:23;100949.06;;;19.79;100.00
49377;BME280;35253;34.688;33.040;2022-10-17T02:27:44;100966.41;;;20.05;100.00
49377;BME280;35253;34.688;33.040;2022-10-17T02:35:35;100969.13;;;20.05;100.00
49377;BME280;35253;34.688;33.040;2022-10-17T02:38:01;100950.78;;;20.09;100.00
49377;BME280;35253;34.688;33.040;2022-10-17T02:40:28;100951.75;;;20.17;100.00
49377;BME280;35253;34.688;33.040;2022-10-17T02:42:54;100940.06;;;20.07;100.00
49377;BME280;35253;34.688;33.040;2022-10-17T02:45:20;100916.44;;;20.00;100.00
49377;BME280;35253;34.688;33.040;2022-10-17T02:47:56;100887.44;;;19.63;100.00
49377;BME280;35253;34.688;33.040;2022-10-17T02:50:26;100863.09;;;19.54;100.00
49377;BME280;35253;34.688;33.040;2022-10-17T02:52:56;100852.53;;;19.31;100.00
49377;BME280;35253;34.688;33.040;2022-10-17T02:55:24;100855.84;;;19.25;100.00
49377;BME280;35253;34.688;33.040;2022-10-17T02:57:53;100838.75;;;19.25;100.00
49377;BME280;35253;34.688;33.040;2022-10-17T03:00:19;100817.56;;;19.30;100.00
49377;BME280;35253;34.688;33.040;2022-10-17T03:02:46;100814.97;;;19.28;100.00
49377;BME280;35253;34.688;33.040;2022-10-17T03:05:13;100803.44;;;19.26;100.00
49377;BME280;35253;34.688;33.040;2022-10-17T03:07:39;100796.63;;;19.22;100.00
49377;BME280;35253;34.688;33.040;2022-10-17T03:10:04;100798.75;;;19.28;100.00
49377;BME280;35253;34.688;33.040;2022-10-17T03:12:30;100805.88;;;19.29;100.00
49377;BME280;35253;34.688;33.040;2022-10-17T03:14:55;100807.59;;;19.50;100.00
49377;BME280;35253;34.688;33.040;2022-10-17T03:17:21;100816.25;;;19.63;100.00
49377;BME280;35253;34.688;33.040;2022-10-17T03:19:46;100814.50;;;19.81;100.00
49377;BME280;35253;34.688;33.040;2022-10-17T03:22:12;100808.78;;;19.84;100.00
49377;BME280;35253;34.688;33.040;2022-10-17T03:24:37;100802.94;;;19.89;100.00
49377;BME280;35253;34.688;33.040;2022-10-17T03:27:03;100799.00;;;19.83;100.00
49377;BME280;35253;34.688;33.040;2022-10-17T03:29:28;100805.09;;;19.85;100.00
49377;BME280;35253;34.688;33.040;2022-10-17T03:31:53;100802.81;;;19.80;100.00
49377;BME280;35253;34.688;33.040;2022-10-17T03:34:19;100803.38;;;19.84;100.00
49377;BME280;35253;34.688;33.040;2022-10-17T03:36:44;100795.97;;;19.86;100.00
49377;BME280;35253;34.688;33.040;2022-10-17T03:39:10;100792.31;;;19.77;100.00
49377;BME280;35253;34.688;33.040;2022-10-17T03:41:35;100797.75;;;19.68;100.00
49377;BME280;35253;34.688;33.040;2022-10-17T03:44:01;100796.28;;;19.83;100.00
49377;BME280;35253;34.688;33.040;2022-10-17T03:46:26;100801.09;;;19.89;100.00
49377;BME280;35253;34.688;33.040;2022-10-17T03:48:52;100793.69;;;19.91;100.00
49377;BME280;35253;34.688;33.040;2022-10-17T03:51:17;100801.41;;;19.86;100.00
49377;BME280;35253;34.688;33.040;2022-10-17T03:53:43;100802.09;;;19.88;100.00
49377;BME280;35253;34.688;33.040;2022-10-17T03:56:09;100797.09;;;19.93;100.00
49377;BME280;35253;34.688;33.040;2022-10-17T03:58:35;100795.09;;;19.95;100.00
49377;BME280;35253;34.688;33.040;2022-10-17T04:01:04;100802.22;;;19.96;100.00
49377;BME280;35253;34.688;33.040;2022-10-17T04:03:31;100802.50;;;19.93;100.00
49377;BME280;35253;34.688;33.040;2022-10-17T04:05:59;100799.06;;;20.01;100.00
49377;BME280;35253;34.688;33.040;2022-10-17T04:08:26;100794.91;;;20.06;100.00
49377;BME280;35253;34.688;33.040;2022-10-17T04:10:51;100795.44;;;20.10;100.00
49377;BME280;35253;34.688;33.040;2022-10-17T04:13:17;100795.84;;;20.15;100.00
49377;BME280;35253;34.688;33.040;2022-10-17T04:15:55;100791.13;;;20.27;100.00
49377;BME280;35253;34.688;33.040;2022-10-17T04:18:21;100796.69;;;20.25;100.00
49377;BME280;35253;34.688;33.040;2022-10-17T04:20:46;100793.97;;;20.35;100.00
49377;BME280;35253;34.688;33.040;2022-10-17T04:23:12;100793.41;;;20.31;100.00
49377;BME280;35253;34.688;33.040;2022-10-17T04:25:37;100798.38;;;20.36;100.00
49377;BME280;35253;34.688;33.040;2022-10-17T04:28:03;100784.47;;;20.48;100.00
49377;BME280;35253;34.688;33.040;2022-10-17T04:30:28;100791.28;;;20.52;100.00
49377;BME280;35253;34.688;33.040;2022-10-17T04:32:53;100775.72;;;20.54;100.00
49377;BME280;35253;34.688;33.040;2022-10-17T04:35:19;100774.22;;;20.69;100.00
49377;BME280;35253;34.688;33.040;2022-10-17T04:37:44;100780.25;;;20.81;100.00
49377;BME280;35253;34.688;33.040;2022-10-17T04:40:10;100781.34;;;20.88;100.00
49377;BME280;35253;34.688;33.040;2022-10-17T04:42:35;100773.97;;;20.98;100.00
49377;BME280;35253;34.688;33.040;2022-10-17T04:45:01;100779.78;;;21.03;100.00
49377;BME280;35253;34.688;33.040;2022-10-17T04:47:26;100772.47;;;21.13;100.00
49377;BME280;35253;34.688;33.040;2022-10-17T04:49:52;100771.69;;;21.21;100.00
49377;BME280;35253;34.688;33.040;2022-10-17T04:52:17;100778.03;;;21.30;100.00
49377;BME280;35253;34.688;33.040;2022-10-17T04:54:43;100760.47;;;21.42;100.00
49377;BME280;35253;34.688;33.040;2022-10-17T04:57:08;100762.34;;;21.41;100.00
49377;BME280;35253;34.688;33.040;2022-10-17T04:59:34;100767.91;;;21.57;100.00
49377;BME280;35253;34.688;33.040;2022-10-17T05:01:59;100776.09;;;21.66;100.00
49377;BME280;35253;34.688;33.040;2022-10-17T05:04:25;100768.16;;;21.72;100.00
49377;BME280;35253;34.688;33.040;2022-10-17T05:06:51;100769.84;;;21.73;100.00
49377;BME280;35253;34.688;33.040;2022-10-17T05:09:16;100770.94;;;21.80;100.00
49377;BME280;35253;34.688;33.040;2022-10-17T05:11:42;100777.81;;;21.92;100.00
49377;BME280;35253;34.688;33.040;2022-10-17T05:14:07;100779.88;;;21.98;100.00
49377;BME280;35253;34.688;33.040;2022-10-17T05:16:33;100790.25;;;22.03;100.00
49377;BME280;35253;34.688;33.040;2022-10-17T05:18:59;100787.75;;;22.10;100.00
49377;BME280;35253;34.688;33.040;2022-10-17T05:21:25;100787.94;;;22.16;100.00
49377;BME280;35253;34.688;33.040;2022-10-17T05:23:51;100791.75;;;22.31;100.00
49377;BME280;35253;34.688;33.040;2022-10-17T05:26:17;100797.72;;;22.35;100.00
49377;BME280;35253;34.688;33.040;2022-10-17T05:28:42;100790.13;;;22.46;100.00
49377;BME280;35253;34.688;33.040;2022-10-17T05:31:11;100785.69;;;22.37;100.00
49377;BME280;35253;34.688;33.040;2022-10-17T05:33:37;100796.34;;;22.39;100.00
49377;BME280;35253;34.688;33.040;2022-10-17T05:36:03;100790.75;;;22.32;100.00
49377;BME280;35253;34.688;33.040;2022-10-17T05:38:29;100800.75;;;22.32;100.00
49377;BME280;35253;34.688;33.040;2022-10-17T05:41:01;100804.84;;;22.36;100.00
49377;BME280;35253;34.688;33.040;2022-10-17T05:43:26;100806.91;;;22.42;100.00
49377;BME280;35253;34.688;33.040;2022-10-17T05:45:52;100816.44;;;22.46;100.00
49377;BME280;35253;34.688;33.040;2022-10-17T05:48:18;100822.75;;;22.55;100.00
49377;BME280;35253;34.688;33.040;2022-10-17T05:50:43;100821.28;;;22.68;100.00
49377;BME280;35253;34.688;33.040;2022-10-17T05:53:09;100819.38;;;22.69;100.00
49377;BME280;35253;34.688;33.040;2022-10-17T05:55:34;100828.63;;;22.76;100.00
49377;BME280;35253;34.688;33.040;2022-10-17T05:58:00;100832.56;;;22.81;100.00
49377;BME280;35253;34.688;33.040;2022-10-17T06:00:26;100840.75;;;22.89;100.00
49377;BME280;35253;34.688;33.040;2022-10-17T06:02:51;100840.75;;;22.98;100.00
49377;BME280;35253;34.688;33.040;2022-10-17T06:05:17;100841.63;;;23.06;100.00
49377;BME280;35253;34.688;33.040;2022-10-17T06:07:42;100847.91;;;23.07;100.00
49377;BME280;35253;34.688;33.040;2022-10-17T06:10:09;100846.22;;;23.06;100.00
49377;BME280;35253;34.688;33.040;2022-10-17T06:12:40;100851.00;;;23.12;100.00
49377;BME280;35253;34.688;33.040;2022-10-17T06:15:06;100853.03;;;23.18;100.00
49377;BME280;35253;34.688;33.040;2022-10-17T06:17:32;100857.44;;;23.19;100.00
49377;BME280;35253;34.688;33.040;2022-10-17T06:19:57;100861.38;;;23.24;100.00
49377;BME280;35253;34.688;33.040;2022-10-17T06:22:23;100862.53;;;23.22;100.00
49377;BME280;35253;34.688;33.040;2022-10-17T06:24:48;100865.97;;;23.24;100.00
49377;BME280;35253;34.688;33.040;2022-10-17T06:27:14;100866.47;;;23.27;100.00
49377;BME280;35253;34.688;33.040;2022-10-17T06:29:39;100872.63;;;23.38;100.00
49377;BME280;35253;34.688;33.040;2022-10-17T06:32:05;100875.38;;;23.46;100.00
49377;BME280;35253;34.688;33.040;2022-10-17T06:34:30;100869.41;;;23.58;100.00
49377;BME280;35253;34.688;33.040;2022-10-17T06:36:56;100865.66;;;23.75;100.00
49377;BME280;35253;34.688;33.040;2022-10-17T06:39:21;100879.28;;;23.84;100.00
49377;BME280;35253;34.688;33.040;2022-10-17T06:41:47;100875.53;;;23.85;100.00
49377;BME280;35253;34.688;33.040;2022-10-17T06:44:13;100871.28;;;23.90;100.00
49377;BME280;35253;34.688;33.040;2022-10-17T06:46:40;100878.09;;;23.86;100.00
49377;BME280;35253;34.688;33.040;2022-10-17T06:49:05;100879.28;;;23.84;100.00
49377;BME280;35253;34.688;33.040;2022-10-17T06:51:35;100877.41;;;23.76;100.00
49377;BME280;35253;34.688;33.040;2022-10-17T06:54:02;100874.00;;;23.90;100.00
49377;BME280;35253;34.688;33.040;2022-10-17T06:56:28;100883.38;;;23.96;100.00
49377;BME280;35253;34.688;33.040;2022-10-17T06:58:53;100884.72;;;24.00;100.00
49377;BME280;35253;34.688;33.040;2022-10-17T07:01:19;100874.88;;;23.91;100.00
49377;BME280;35253;34.688;33.040;2022-10-17T07:03:46;100863.44;;;23.95;100.00
49377;BME280;35253;34.688;33.040;2022-10-17T07:06:13;100864.44;;;24.10;100.00
49377;BME280;35253;34.688;33.040;2022-10-17T07:08:42;100856.78;;;24.22;100.00
49377;BME280;35253;34.688;33.040;2022-10-17T07:11:13;100871.88;;;24.41;100.00
49377;BME280;35253;34.688;33.040;2022-10-17T07:13:39;100859.72;;;24.59;100.00
49377;BME280;35253;34.688;33.040;2022-10-17T07:16:05;100852.91;;;24.55;100.00
49377;BME280;35253;34.688;33.040;2022-10-17T07:18:30;100850.34;;;24.54;100.00
49377;BME280;35253;34.688;33.040;2022-10-17T07:20:56;100848.31;;;24.56;100.00
49377;BME280;35253;34.688;33.040;2022-10-17T07:23:22;100841.38;;;24.45;100.00
49377;BME280;35253;34.688;33.040;2022-10-17T07:25:47;100833.19;;;24.45;100.00
49377;BME280;35253;34.688;33.040;2022-10-17T07:28:13;100835.63;;;24.32;100.00
49377;BME280;35253;34.688;33.040;2022-10-17T07:30:39;100828.13;;;24.34;100.00
49377;BME280;35253;34.688;33.040;2022-10-17T07:33:06;100830.13;;;24.48;100.00
49377;BME280;35253;34.688;33.040;2022-10-17T07:35:31;100820.53;;;24.60;100.00
49377;BME280;35253;34.688;33.040;2022-10-17T07:37:57;100818.06;;;24.74;100.00
49377;BME280;35253;34.688;33.040;2022-10-17T07:40:22;100820.31;;;24.70;100.00
49377;BME280;35253;34.688;33.040;2022-10-17T07:42:47;100821.81;;;24.73;100.00
49377;BME280;35253;34.688;33.040;2022-10-17T07:45:13;100821.88;;;24.64;100.00
49377;BME280;35253;34.688;33.040;2022-10-17T07:47:39;100823.78;;;24.56;100.00
49377;BME280;35253;34.688;33.040;2022-10-17T07:50:05;100824.69;;;24.48;100.00
49377;BME280;35253;34.688;33.040;2022-10-17T07:52:31;100817.03;;;24.44;100.00
49377;BME280;35253;34.688;33.040;2022-10-17T07:54:56;100809.72;;;24.36;100.00
49377;BME280;35253;34.688;33.040;2022-10-17T07:57:21;100820.63;;;24.36;100.00
49377;BME280;35253;34.688;33.040;2022-10-17T07:59:47;100800.16;;;24.40;100.00
49377;BME280;35253;34.688;33.040;2022-10-17T08:02:19;100801.22;;;24.39;100.00
49377;BME280;35253;34.688;33.040;2022-10-17T08:04:45;100801.22;;;24.31;100.00
49377;BME280;35253;34.688;33.040;2022-10-17T08:07:11;100811.16;;;24.08;100.00
49377;BME280;35253;34.688;33.040;2022-10-17T08:09:36;100796.72;;;23.83;100.00
49377;BME280;35253;34.688;33.040;2022-10-17T08:12:01;100794.84;;;23.84;100.00
49377;BME280;35253;34.688;33.040;2022-10-17T08:14:27;100819.75;;;23.64;100.00
49377;BME280;35253;34.688;33.040;2022-10-17T08:16:53;100814.31;;;23.64;100.00
49377;BME280;35253;34.688;33.040;2022-10-17T08:19:18;100818.56;;;23.51;100.00
49377;BME280;35253;34.688;33.040;2022-10-17T08:21:44;100819.06;;;23.46;100.00
49377;BME280;35253;34.688;33.040;2022-10-17T08:24:11;100810.06;;;23.46;100.00
49377;BME280;35253;34.688;33.040;2022-10-17T08:26:36;100803.75;;;23.37;100.00
49377;BME280;35253;34.688;33.040;2022-10-17T08:29:02;100810.53;;;23.33;100.00
49377;BME280;35253;34.688;33.040;2022-10-17T08:31:28;100799.66;;;23.33;100.00
49377;BME280;35253;34.688;33.040;2022-10-17T08:33:53;100817.50;;;23.27;100.00
49377;BME280;35253;34.688;33.040;2022-10-17T08:36:19;100823.78;;;23.28;100.00
49377;BME280;35253;34.688;33.040;2022-10-17T08:38:45;100835.19;;;23.40;100.00
49377;BME280;35253;34.688;33.040;2022-10-17T08:41:57;100827.22;;;23.38;100.00
49377;BME280;35253;34.688;33.040;2022-10-17T08:46:28;100881.28;;;23.25;100.00
49377;BME280;35253;34.688;33.040;2022-10-17T08:48:54;100865.63;;;23.19;100.00
49377;BME280;35253;34.688;33.040;2022-10-17T08:51:24;100863.72;;;23.03;100.00
49377;BME280;35253;34.688;33.040;2022-10-17T08:56:19;100867.94;;;22.89;100.00
49377;BME280;35253;34.688;33.040;2022-10-17T08:58:48;100856.56;;;22.94;100.00
49377;BME280;35253;34.688;33.040;2022-10-17T09:06:54;100884.50;;;22.70;100.00
49377;BME280;35253;34.688;33.040;2022-10-17T09:17:07;100860.03;;;22.70;100.00
49377;BME280;35253;34.688;33.040;2022-10-17T09:19:38;100862.34;;;22.57;100.00
49377;BME280;35253;34.688;33.040;2022-10-17T09:22:08;100862.00;;;22.60;100.00
49377;BME280;35253;34.688;33.040;2022-10-17T09:24:39;100864.22;;;22.65;100.00
49377;BME280;35253;34.688;33.040;2022-10-17T09:27:41;100862.38;;;22.65;100.00
49377;BME280;35253;34.688;33.040;2022-10-17T09:32:42;100820.44;;;22.34;100.00
49377;BME280;35253;34.688;33.040;2022-10-17T09:35:12;100858.84;;;22.39;100.00
49377;BME280;35253;34.688;33.040;2022-10-17T09:37:37;100857.47;;;22.35;100.00
49377;BME280;35253;34.688;33.040;2022-10-17T09:40:04;100866.22;;;22.21;100.00
49377;BME280;35253;34.688;33.040;2022-10-17T09:42:32;100859.41;;;22.17;100.00
49377;BME280;35253;34.688;33.040;2022-10-17T09:45:16;100850.47;;;22.24;100.00
49377;BME280;35253;34.688;33.040;2022-10-17T09:47:49;100834.91;;;22.09;100.00
49377;BME280;35253;34.688;33.040;2022-10-17T09:50:34;100885.19;;;22.13;100.00
49377;BME280;35253;34.688;33.040;2022-10-17T09:53:01;100896.38;;;22.10;100.00
49377;BME280;35253;34.688;33.040;2022-10-17T09:55:44;100893.66;;;22.10;100.00
49377;BME280;35253;34.688;33.040;2022-10-17T09:58:12;100904.75;;;21.98;100.00
49377;BME280;35253;34.688;33.040;2022-10-17T10:00:38;100884.00;;;21.89;100.00
49377;BME280;35253;34.688;33.040;2022-10-17T10:03:20;100886.00;;;22.05;100.00
49377;BME280;35253;34.688;33.040;2022-10-17T10:06:00;100898.03;;;22.02;100.00
49377;BME280;35253;34.688;33.040;2022-10-17T10:08:27;100894.66;;;22.09;100.00
49377;BME280;35253;34.688;33.040;2022-10-17T10:11:00;100881.78;;;22.11;100.00
49377;BME280;35253;34.688;33.040;2022-10-17T10:13:27;100880.13;;;22.18;100.00
49377;BME280;35253;34.688;33.040;2022-10-17T10:15:53;100874.03;;;22.16;100.00
49377;BME280;35253;34.688;33.040;2022-10-17T10:18:36;100872.25;;;22.32;100.00
49377;BME280;35253;34.688;33.040;2022-10-17T10:23:40;100851.06;;;22.44;100.00
49377;BME280;35253;34.688;33.040;2022-10-17T10:28:35;100840.94;;;22.54;100.00
49377;BME280;35253;34.688;33.040;2022-10-17T10:31:03;100829.06;;;22.63;100.00
49377;BME280;35253;34.688;33.040;2022-10-17T10:33:29;100827.88;;;22.66;100.00
49377;BME280;35253;34.688;33.040;2022-10-17T10:36:00;100826.25;;;22.73;100.00
49377;BME280;35253;34.688;33.040;2022-10-17T10:38:26;100807.44;;;23.04;100.00
49377;BME280;35253;34.688;33.040;2022-10-17T10:40:56;100792.81;;;23.13;100.00
49377;BME280;35253;34.688;33.040;2022-10-17T10:43:28;100811.19;;;23.11;100.00
49377;BME280;35253;34.688;33.040;2022-10-17T10:45:56;100847.91;;;23.07;100.00
49377;BME280;35253;34.688;33.040;2022-10-17T10:48:25;100834.63;;;22.96;100.00
49377;BME280;35253;34.688;33.040;2022-10-17T10:50:56;100841.03;;;22.78;100.00
49377;BME280;35253;34.688;33.040;2022-10-17T10:53:43;100850.19;;;22.69;100.00
49377;BME280;35253;34.688;33.040;2022-10-17T11:03:52;100831.84;;;22.71;100.00
49377;BME280;35253;34.688;33.040;2022-10-17T11:06:30;100829.66;;;22.75;100.00
49377;BME280;35253;34.688;33.040;2022-10-17T11:11:31;100830.06;;;22.54;100.00
49377;BME280;35253;34.688;33.040;2022-10-17T11:14:07;100848.22;;;22.54;100.00
49377;BME280;35253;34.688;33.040;2022-10-17T11:19:28;100849.38;;;22.51;100.00
49377;BME280;35253;34.688;33.040;2022-10-17T11:22:00;100841.22;;;22.51;100.00
49377;BME280;35253;34.688;33.040;2022-10-17T11:24:28;100845.00;;;22.50;100.00
49377;BME280;35253;34.688;33.040;2022-10-17T11:29:21;100842.97;;;22.60;100.00
49377;BME280;35253;34.688;33.040;2022-10-17T11:31:49;100844.44;;;22.72;100.00
49377;BME280;35253;34.688;33.040;2022-10-17T11:34:26;100811.88;;;22.46;100.00
49377;BME280;35253;34.688;33.040;2022-10-17T11:36:54;100814.34;;;22.32;100.00
49377;BME280;35253;34.688;33.040;2022-10-17T11:41:53;100803.53;;;22.48;100.00
49377;BME280;35253;34.688;33.040;2022-10-17T11:46:47;100817.94;;;22.82;100.00
49377;BME280;35253;34.688;33.040;2022-10-17T11:49:15;100813.34;;;22.83;100.00
49377;BME280;35253;34.688;33.040;2022-10-17T11:51:50;100827.78;;;22.83;100.00
49377;BME280;35253;34.688;33.040;2022-10-17T11:54:23;100826.06;;;22.74;100.00
49377;BME280;35253;34.688;33.040;2022-10-17T12:01:53;100820.03;;;22.55;100.00
49377;BME280;35253;34.688;33.040;2022-10-17T12:04:29;100827.94;;;22.40;100.00
49377;BME280;35253;34.688;33.040;2022-10-17T12:07:07;100820.50;;;22.42;100.00
49377;BME280;35253;34.688;33.040;2022-10-17T12:12:06;100825.56;;;22.37;100.00
49377;BME280;35253;34.688;33.040;2022-10-17T12:16:57;100813.56;;;22.14;100.00
49377;BME280;35253;34.688;33.040;2022-10-17T12:19:24;100806.66;;;22.19;100.00
49377;BME280;35253;34.688;33.040;2022-10-17T12:21:54;100796.34;;;22.31;100.00
49377;BME280;35253;34.688;33.040;2022-10-17T12:26:52;100793.47;;;22.32;100.00
49377;BME280;35253;34.688;33.040;2022-10-17T12:29:24;100787.50;;;22.29;100.00
49377;BME280;35253;34.688;33.040;2022-10-17T12:31:52;100810.28;;;22.36;100.00
49377;BME280;35253;34.688;33.040;2022-10-17T12:34:18;100798.47;;;22.53;100.00
49377;BME280;35253;34.688;33.040;2022-10-17T12:36:46;100809.47;;;22.94;100.00
49377;BME280;35253;34.688;33.040;2022-10-17T12:49:21;100831.22;;;22.85;100.00
49377;BME280;35253;34.688;33.040;2022-10-17T12:52:37;100828.53;;;23.02;100.00
49377;BME280;35253;34.688;33.040;2022-10-17T12:54:39;100843.16;;;23.17;100.00
49377;BME280;35253;34.688;33.040;2022-10-17T13:00:04;100835.22;;;23.48;100.00
49377;BME280;35253;34.688;33.040;2022-10-17T13:02:36;100836.25;;;23.63;100.00
49377;BME280;35253;34.688;33.040;2022-10-17T13:05:04;100846.63;;;23.51;100.00
49377;BME280;35253;34.688;33.040;2022-10-17T13:07:32;100848.50;;;23.51;100.00
49377;BME280;35253;34.688;33.040;2022-10-17T13:09:58;100846.97;;;23.72;100.00
49377;BME280;35253;34.688;33.040;2022-10-17T13:12:28;100842.50;;;23.88;100.00
49377;BME280;35253;34.688;33.040;2022-10-17T13:14:55;100837.78;;;23.82;100.00
49377;BME280;35253;34.688;33.040;2022-10-17T13:19:46;100827.56;;;23.67;100.00
49377;BME280;35253;34.688;33.040;2022-10-17T13:22:14;100825.16;;;23.80;100.00
49377;BME280;35253;34.688;33.040;2022-10-17T13:24:40;100818.69;;;23.90;100.00
49377;BME280;35253;34.688;33.040;2022-10-17T13:27:20;100819.03;;;23.87;100.00
49377;BME280;35253;34.688;33.040;2022-10-17T13:29:46;100822.78;;;23.86;100.00
49377;BME280;35253;34.688;33.040;2022-10-17T13:32:12;100826.84;;;23.98;100.00
49377;BME280;35253;34.688;33.040;2022-10-17T13:34:37;100823.56;;;24.18;100.00
49377;BME280;35253;34.688;33.040;2022-10-17T13:37:03;100828.50;;;24.23;100.00
49377;BME280;35253;34.688;33.040;2022-10-17T13:39:32;100816.22;;;24.27;100.00
49377;BME280;35253;34.688;33.040;2022-10-17T13:42:00;100818.59;;;24.38;100.00
49377;BME280;35253;34.688;33.040;2022-10-17T13:44:26;100820.97;;;24.33;100.00
49377;BME280;35253;34.688;33.040;2022-10-17T13:46:52;100823.31;;;24.44;100.00
49377;BME280;35253;34.688;33.040;2022-10-17T13:51:55;100828.78;;;24.36;100.00
49377;BME280;35253;34.688;33.040;2022-10-17T13:54:42;100825.25;;;24.28;100.00
49377;BME280;35253;34.688;33.040;2022-10-17T13:59:42;100827.53;;;24.00;100.00
49377;BME280;35253;34.688;33.040;2022-10-17T14:02:30;100829.75;;;23.80;100.00
49377;BME280;35253;34.688;33.040;2022-10-17T14:05:10;100831.66;;;23.71;100.00
49377;BME280;35253;34.688;33.040;2022-10-17T14:07:49;100836.06;;;23.80;100.00
49377;BME280;35253;34.688;33.040;2022-10-17T14:12:45;100843.72;;;23.53;100.00
49377;BME280;35253;34.688;33.040;2022-10-17T14:15:12;100850.19;;;23.44;100.00
49377;BME280;35253;34.688;33.040;2022-10-17T14:17:38;100840.16;;;23.44;100.00
49377;BME280;35253;34.688;33.040;2022-10-17T14:20:04;100843.34;;;23.40;100.00
49377;BME280;35253;34.688;33.040;2022-10-17T14:22:35;100850.00;;;23.37;100.00
49377;BME280;35253;34.688;33.040;2022-10-17T14:25:01;100847.28;;;23.29;100.00
49377;BME280;35253;34.688;33.040;2022-10-17T14:27:50;100857.09;;;23.22;100.00
49377;BME280;35253;34.688;33.040;2022-10-17T14:32:55;100853.72;;;23.20;100.00